sensor_id;sensor_type;location;lat;lon;timestamp;pressure;altitude;pressure_sealevel;temperature;humidity
10460;BME280;54412;51.206;6.888;2024-01-30T00:01:51;102008.19;;;11.18;77.19
10460;BME280;54412;51.206;6.888;2024-01-30T00:04:17;102019.59;;;11.46;76.11
10460;BME280;54412;51.206;6.888;2024-01-30T00:06:44;102010.00;;;11.43;76.15
10460;BME280;54412;51.206;6.888;2024-01-30T00:09:09;102011.69;;;11.18;76.74
10460;BME280;54412;51.206;6.888;2024-01-30T00:11:37;102003.66;;;11.21;77.07
10460;BME280;54412;51.206;6.888;2024-01-30T00:14:03;102000.41;;;11.13;76.93
10460;BME280;54412;51.206;6.888;2024-01-30T00:16:29;102011.00;;;11.12;77.18
10460;BME280;54412;51.206;6.888;2024-01-30T00:18:55;102003.78;;;11.18;76.78
10460;BME280;54412;51.206;6.888;2024-01-30T00:21:21;101995.75;;;11.21;76.72
10460;BME280;54412;51.206;6.888;2024-01-30T00:23:47;102002.94;;;11.16;76.99
10460;BME280;54412;51.206;6.888;2024-01-30T00:26:13;102000.16;;;11.21;76.79
10460;BME280;54412;51.206;6.888;2024-01-30T00:28:43;102003.81;;;11.17;76.64
10460;BME280;54412;51.206;6.888;2024-01-30T00:31:09;102001.94;;;11.20;76.50
10460;BME280;54412;51.206;6.888;2024-01-30T00:33:39;102004.94;;;11.08;76.77
10460;BME280;54412;51.206;6.888;2024-01-30T00:36:06;101999.75;;;11.05;77.08
10460;BME280;54412;51.206;6.888;2024-01-30T00:38:35;101991.56;;;11.14;76.79
10460;BME280;54412;51.206;6.888;2024-01-30T00:41:01;102003.19;;;11.09;77.07
10460;BME280;54412;51.206;6.888;2024-01-30T00:43:30;101989.91;;;11.10;76.85
10460;BME280;54412;51.206;6.888;2024-01-30T00:45:56;101999.66;;;11.08;77.34
10460;BME280;54412;51.206;6.888;2024-01-30T00:48:23;101996.84;;;11.14;76.89
10460;BME280;54412;51.206;6.888;2024-01-30T00:50:49;101991.63;;;11.13;76.72
10460;BME280;54412;51.206;6.888;2024-01-30T00:53:15;101988.06;;;11.14;76.74
10460;BME280;54412;51.206;6.888;2024-01-30T00:55:41;101994.38;;;11.10;76.64
10460;BME280;54412;51.206;6.888;2024-01-30T00:58:06;101989.75;;;11.16;76.73
10460;BME280;54412;51.206;6.888;2024-01-30T01:00:32;101993.50;;;11.09;76.89
10460;BME280;54412;51.206;6.888;2024-01-30T01:03:01;101998.06;;;11.03;77.29
10460;BME280;54412;51.206;6.888;2024-01-30T01:05:27;101995.63;;;10.97;77.48
10460;BME280;54412;51.206;6.888;2024-01-30T01:07:53;102005.09;;;11.04;77.10
10460;BME280;54412;51.206;6.888;2024-01-30T01:10:19;101994.38;;;11.10;76.54
10460;BME280;54412;51.206;6.888;2024-01-30T01:12:46;102000.81;;;11.00;77.27
10460;BME280;54412;51.206;6.888;2024-01-30T01:15:12;101999.50;;;11.14;76.45
10460;BME280;54412;51.206;6.888;2024-01-30T01:17:38;102008.63;;;11.04;76.76
10460;BME280;54412;51.206;6.888;2024-01-30T01:20:06;101993.34;;;11.14;76.63
10460;BME280;54412;51.206;6.888;2024-01-30T01:22:32;102001.84;;;10.94;77.08
10460;BME280;54412;51.206;6.888;2024-01-30T01:24:59;102000.97;;;10.95;77.23
10460;BME280;54412;51.206;6.888;2024-01-30T01:27:25;102001.84;;;10.94;77.19
10460;BME280;54412;51.206;6.888;2024-01-30T01:29:51;101995.69;;;10.95;77.04
10460;BME280;54412;51.206;6.888;2024-01-30T01:32:17;102007.25;;;10.91;77.24
10460;BME280;54412;51.206;6.888;2024-01-30T01:34:43;102002.69;;;10.96;77.06
10460;BME280;54412;51.206;6.888;2024-01-30T01:37:09;101993.06;;;10.94;77.58
10460;BME280;54412;51.206;6.888;2024-01-30T01:39:35;101998.63;;;10.85;77.63
10460;BME280;54412;51.206;6.888;2024-01-30T01:42:00;101998.94;;;10.74;78.11
10460;BME280;54412;51.206;6.888;2024-01-30T01:44:27;101991.19;;;10.99;76.96
10460;BME280;54412;51.206;6.888;2024-01-30T01:46:54;101988.97;;;10.84;77.78
10460;BME280;54412;51.206;6.888;2024-01-30T01:49:24;101994.13;;;10.88;77.31
10460;BME280;54412;51.206;6.888;2024-01-30T01:51:53;101987.16;;;10.86;77.67
10460;BME280;54412;51.206;6.888;2024-01-30T01:54:22;101988.34;;;10.76;77.89
10460;BME280;54412;51.206;6.888;2024-01-30T01:56:50;101985.16;;;10.65;78.74
10460;BME280;54412;51.206;6.888;2024-01-30T01:59:18;101986.50;;;10.79;78.33
10460;BME280;54412;51.206;6.888;2024-01-30T02:01:45;101976.09;;;10.73;78.63
10460;BME280;54412;51.206;6.888;2024-01-30T02:04:15;101978.88;;;10.69;78.72
10460;BME280;54412;51.206;6.888;2024-01-30T02:06:41;101984.69;;;10.80;78.17
10460;BME280;54412;51.206;6.888;2024-01-30T02:09:08;101978.53;;;10.50;79.33
10460;BME280;54412;51.206;6.888;2024-01-30T02:11:34;101973.00;;;10.59;79.08
10460;BME280;54412;51.206;6.888;2024-01-30T02:14:04;101986.00;;;10.67;78.63
10460;BME280;54412;51.206;6.888;2024-01-30T02:16:31;101980.97;;;10.87;77.79
10460;BME280;54412;51.206;6.888;2024-01-30T02:18:57;101969.53;;;10.57;79.10
10460;BME280;54412;51.206;6.888;2024-01-30T02:21:23;101976.28;;;10.67;78.51
10460;BME280;54412;51.206;6.888;2024-01-30T02:23:49;101976.38;;;10.93;77.54
10460;BME280;54412;51.206;6.888;2024-01-30T02:26:16;101969.44;;;10.60;78.60
10460;BME280;54412;51.206;6.888;2024-01-30T02:28:41;101965.41;;;10.78;78.27
10460;BME280;54412;51.206;6.888;2024-01-30T02:31:07;101963.94;;;10.68;78.82
10460;BME280;54412;51.206;6.888;2024-01-30T02:33:33;101964.72;;;10.71;78.64
10460;BME280;54412;51.206;6.888;2024-01-30T02:35:59;101959.19;;;10.80;77.86
10460;BME280;54412;51.206;6.888;2024-01-30T02:38:24;101967.03;;;10.82;77.78
10460;BME280;54412;51.206;6.888;2024-01-30T02:40:52;101958.19;;;10.84;77.73
10460;BME280;54412;51.206;6.888;2024-01-30T02:43:18;101954.00;;;10.77;78.00
10460;BME280;54412;51.206;6.888;2024-01-30T02:45:43;101960.44;;;10.67;78.60
10460;BME280;54412;51.206;6.888;2024-01-30T02:48:09;101951.59;;;10.70;78.55
10460;BME280;54412;51.206;6.888;2024-01-30T02:50:34;101958.41;;;10.77;78.56
10460;BME280;54412;51.206;6.888;2024-01-30T02:53:00;101950.09;;;10.60;78.77
10460;BME280;54412;51.206;6.888;2024-01-30T02:55:26;101954.66;;;10.84;78.08
10460;BME280;54412;51.206;6.888;2024-01-30T02:57:52;101948.91;;;10.71;78.49
10460;BME280;54412;51.206;6.888;2024-01-30T03:00:19;101951.34;;;10.77;78.24
10460;BME280;54412;51.206;6.888;2024-01-30T03:02:45;101949.06;;;10.65;78.77
10460;BME280;54412;51.206;6.888;2024-01-30T03:05:11;101946.25;;;10.71;78.83
10460;BME280;54412;51.206;6.888;2024-01-30T03:07:37;101940.03;;;10.74;78.59
10460;BME280;54412;51.206;6.888;2024-01-30T03:10:04;101941.69;;;10.76;78.25
10460;BME280;54412;51.206;6.888;2024-01-30T03:12:31;101935.44;;;10.80;78.18
10460;BME280;54412;51.206;6.888;2024-01-30T03:14:57;101937.56;;;10.68;78.40
10460;BME280;54412;51.206;6.888;2024-01-30T03:17:23;101931.19;;;10.75;78.35
10460;BME280;54412;51.206;6.888;2024-01-30T03:19:50;101937.25;;;10.78;78.18
10460;BME280;54412;51.206;6.888;2024-01-30T03:22:15;101930.31;;;10.76;78.52
10460;BME280;54412;51.206;6.888;2024-01-30T03:24:41;101931.03;;;10.81;77.95
10460;BME280;54412;51.206;6.888;2024-01-30T03:27:07;101932.88;;;10.77;78.33
10460;BME280;54412;51.206;6.888;2024-01-30T03:29:33;101928.88;;;10.93;77.57
10460;BME280;54412;51.206;6.888;2024-01-30T03:31:59;101924.75;;;10.83;77.82
10460;BME280;54412;51.206;6.888;2024-01-30T03:34:24;101925.03;;;10.76;78.07
10460;BME280;54412;51.206;6.888;2024-01-30T03:36:50;101936.56;;;10.72;78.38
10460;BME280;54412;51.206;6.888;2024-01-30T03:39:17;101926.56;;;10.83;78.03
10460;BME280;54412;51.206;6.888;2024-01-30T03:41:42;101921.78;;;10.94;77.68
10460;BME280;54412;51.206;6.888;2024-01-30T03:44:10;101925.31;;;10.94;77.73
10460;BME280;54412;51.206;6.888;2024-01-30T03:46:35;101923.00;;;10.84;77.66
10460;BME280;54412;51.206;6.888;2024-01-30T03:49:01;101925.63;;;10.84;78.00
10460;BME280;54412;51.206;6.888;2024-01-30T03:51:27;101921.06;;;10.89;77.84
10460;BME280;54412;51.206;6.888;2024-01-30T03:53:52;101925.34;;;10.93;77.61
10460;BME280;54412;51.206;6.888;2024-01-30T03:56:18;101921.19;;;10.86;78.02
10460;BME280;54412;51.206;6.888;2024-01-30T03:58:44;101919.44;;;10.85;78.00
10460;BME280;54412;51.206;6.888;2024-01-30T04:01:14;101917.06;;;10.77;78.06
10460;BME280;54412;51.206;6.888;2024-01-30T04:03:41;101912.72;;;10.75;78.23
10460;BME280;54412;51.206;6.888;2024-01-30T04:06:07;101918.44;;;10.61;78.66
10460;BME280;54412;51.206;6.888;2024-01-30T04:08:33;101921.28;;;10.83;78.33
10460;BME280;54412;51.206;6.888;2024-01-30T04:10:59;101916.22;;;10.75;78.43
10460;BME280;54412;51.206;6.888;2024-01-30T04:13:28;101917.88;;;10.79;78.07
10460;BME280;54412;51.206;6.888;2024-01-30T04:15:53;101916.28;;;11.01;76.97
10460;BME280;54412;51.206;6.888;2024-01-30T04:18:20;101911.56;;;10.83;77.86
10460;BME280;54412;51.206;6.888;2024-01-30T04:20:46;101914.53;;;10.73;78.19
10460;BME280;54412;51.206;6.888;2024-01-30T04:23:12;101918.06;;;10.73;78.12
10460;BME280;54412;51.206;6.888;2024-01-30T04:25:37;101917.38;;;10.94;77.27
10460;BME280;54412;51.206;6.888;2024-01-30T04:28:03;101914.63;;;10.70;78.27
10460;BME280;54412;51.206;6.888;2024-01-30T04:30:29;101913.50;;;10.78;78.25
10460;BME280;54412;51.206;6.888;2024-01-30T04:32:55;101904.75;;;10.76;78.03
10460;BME280;54412;51.206;6.888;2024-01-30T04:35:21;101910.94;;;10.75;77.86
10460;BME280;54412;51.206;6.888;2024-01-30T04:37:49;101900.28;;;10.78;78.11
10460;BME280;54412;51.206;6.888;2024-01-30T04:40:14;101906.63;;;10.73;77.89
10460;BME280;54412;51.206;6.888;2024-01-30T04:42:40;101905.44;;;10.53;78.81
10460;BME280;54412;51.206;6.888;2024-01-30T04:45:06;101899.97;;;10.60;79.06
10460;BME280;54412;51.206;6.888;2024-01-30T04:47:32;101906.31;;;10.54;79.06
10460;BME280;54412;51.206;6.888;2024-01-30T04:49:57;101899.56;;;10.44;79.59
10460;BME280;54412;51.206;6.888;2024-01-30T04:52:23;101909.97;;;10.50;79.73
10460;BME280;54412;51.206;6.888;2024-01-30T04:54:49;101906.19;;;10.59;79.38
10460;BME280;54412;51.206;6.888;2024-01-30T04:57:14;101904.63;;;10.51;79.62
10460;BME280;54412;51.206;6.888;2024-01-30T04:59:40;101909.75;;;10.58;78.91
10460;BME280;54412;51.206;6.888;2024-01-30T05:02:06;101907.88;;;10.61;79.08
10460;BME280;54412;51.206;6.888;2024-01-30T05:04:32;101910.63;;;10.57;79.01
10460;BME280;54412;51.206;6.888;2024-01-30T05:06:58;101904.75;;;10.47;79.87
10460;BME280;54412;51.206;6.888;2024-01-30T05:09:23;101905.53;;;10.50;79.26
10460;BME280;54412;51.206;6.888;2024-01-30T05:11:49;101899.13;;;10.30;80.00
10460;BME280;54412;51.206;6.888;2024-01-30T05:14:15;101898.06;;;10.35;80.53
10460;BME280;54412;51.206;6.888;2024-01-30T05:16:41;101896.84;;;10.16;81.08
10460;BME280;54412;51.206;6.888;2024-01-30T05:19:13;101897.31;;;10.32;80.78
10460;BME280;54412;51.206;6.888;2024-01-30T05:21:39;101907.63;;;10.39;80.84
10460;BME280;54412;51.206;6.888;2024-01-30T05:24:05;101902.44;;;10.36;80.68
10460;BME280;54412;51.206;6.888;2024-01-30T05:26:31;101898.69;;;10.45;79.96
10460;BME280;54412;51.206;6.888;2024-01-30T05:28:57;101900.28;;;10.49;79.88
10460;BME280;54412;51.206;6.888;2024-01-30T05:31:23;101903.53;;;10.59;79.30
10460;BME280;54412;51.206;6.888;2024-01-30T05:33:48;101883.66;;;10.47;79.85
10460;BME280;54412;51.206;6.888;2024-01-30T05:36:14;101899.53;;;10.45;79.82
10460;BME280;54412;51.206;6.888;2024-01-30T05:38:40;101898.63;;;10.46;79.93
10460;BME280;54412;51.206;6.888;2024-01-30T05:41:05;101895.59;;;10.29;80.80
10460;BME280;54412;51.206;6.888;2024-01-30T05:43:31;101887.03;;;10.52;81.56
10460;BME280;54412;51.206;6.888;2024-01-30T05:45:57;101887.88;;;10.82;83.18
10460;BME280;54412;51.206;6.888;2024-01-30T05:48:22;101895.59;;;10.88;81.31
10460;BME280;54412;51.206;6.888;2024-01-30T05:50:48;101902.59;;;10.89;82.07
10460;BME280;54412;51.206;6.888;2024-01-30T05:53:14;101885.94;;;10.87;80.97
10460;BME280;54412;51.206;6.888;2024-01-30T05:55:39;101886.97;;;10.83;79.92
10460;BME280;54412;51.206;6.888;2024-01-30T05:58:05;101893.56;;;10.96;82.25
10460;BME280;54412;51.206;6.888;2024-01-30T06:00:31;101893.97;;;10.84;80.28
10460;BME280;54412;51.206;6.888;2024-01-30T06:02:57;101890.09;;;10.95;79.57
10460;BME280;54412;51.206;6.888;2024-01-30T06:05:22;101893.34;;;11.03;78.88
10460;BME280;54412;51.206;6.888;2024-01-30T06:07:48;101891.81;;;10.96;79.44
10460;BME280;54412;51.206;6.888;2024-01-30T06:10:14;101892.97;;;10.88;79.10
10460;BME280;54412;51.206;6.888;2024-01-30T06:12:40;101894.38;;;10.98;79.02
10460;BME280;54412;51.206;6.888;2024-01-30T06:15:06;101890.09;;;10.95;79.52
10460;BME280;54412;51.206;6.888;2024-01-30T06:17:32;101898.47;;;10.80;79.20
10460;BME280;54412;51.206;6.888;2024-01-30T06:19:58;101896.78;;;10.78;79.50
10460;BME280;54412;51.206;6.888;2024-01-30T06:22:23;101889.16;;;10.69;80.44
10460;BME280;54412;51.206;6.888;2024-01-30T06:24:49;101887.88;;;10.82;79.21
10460;BME280;54412;51.206;6.888;2024-01-30T06:27:15;101889.91;;;10.72;79.84
10460;BME280;54412;51.206;6.888;2024-01-30T06:29:43;101887.09;;;10.78;79.64
10460;BME280;54412;51.206;6.888;2024-01-30T06:32:08;101893.34;;;10.76;79.48
10460;BME280;54412;51.206;6.888;2024-01-30T06:34:34;101884.50;;;10.77;79.53
10460;BME280;54412;51.206;6.888;2024-01-30T06:37:00;101874.91;;;10.74;80.18
10460;BME280;54412;51.206;6.888;2024-01-30T06:39:26;101871.97;;;10.56;80.55
10460;BME280;54412;51.206;6.888;2024-01-30T06:41:52;101870.28;;;10.53;80.77
10460;BME280;54412;51.206;6.888;2024-01-30T06:44:18;101870.50;;;10.45;80.66
10460;BME280;54412;51.206;6.888;2024-01-30T06:46:43;101863.38;;;10.20;81.90
10460;BME280;54412;51.206;6.888;2024-01-30T06:49:09;101868.50;;;10.24;81.94
10460;BME280;54412;51.206;6.888;2024-01-30T06:51:35;101870.50;;;10.16;82.58
10460;BME280;54412;51.206;6.888;2024-01-30T06:54:00;101871.28;;;10.20;82.15
10460;BME280;54412;51.206;6.888;2024-01-30T06:56:26;101880.50;;;10.36;81.84
10460;BME280;54412;51.206;6.888;2024-01-30T06:58:51;101884.34;;;10.24;82.00
10460;BME280;54412;51.206;6.888;2024-01-30T07:01:17;101880.34;;;10.40;81.45
10460;BME280;54412;51.206;6.888;2024-01-30T07:03:43;101885.84;;;10.33;81.79
10460;BME280;54412;51.206;6.888;2024-01-30T07:06:09;101905.84;;;10.40;81.16
10460;BME280;54412;51.206;6.888;2024-01-30T07:08:36;101910.19;;;10.42;81.15
10460;BME280;54412;51.206;6.888;2024-01-30T07:11:07;101900.81;;;10.32;81.53
10460;BME280;54412;51.206;6.888;2024-01-30T07:13:34;101915.13;;;10.53;80.82
10460;BME280;54412;51.206;6.888;2024-01-30T07:16:00;101906.34;;;10.52;80.57
10460;BME280;54412;51.206;6.888;2024-01-30T07:18:25;101904.59;;;10.53;80.67
10460;BME280;54412;51.206;6.888;2024-01-30T07:20:51;101904.81;;;10.45;80.91
10460;BME280;54412;51.206;6.888;2024-01-30T07:23:17;101904.25;;;10.34;81.61
10460;BME280;54412;51.206;6.888;2024-01-30T07:25:44;101901.31;;;10.45;81.35
10460;BME280;54412;51.206;6.888;2024-01-30T07:28:15;101903.97;;;10.45;81.46
10460;BME280;54412;51.206;6.888;2024-01-30T07:30:44;101911.78;;;10.48;81.15
10460;BME280;54412;51.206;6.888;2024-01-30T07:33:10;101918.97;;;10.43;81.46
10460;BME280;54412;51.206;6.888;2024-01-30T07:35:36;101920.06;;;10.36;81.88
10460;BME280;54412;51.206;6.888;2024-01-30T07:38:02;101913.75;;;10.40;81.85
10460;BME280;54412;51.206;6.888;2024-01-30T07:40:28;101917.56;;;10.61;80.52
10460;BME280;54412;51.206;6.888;2024-01-30T07:42:54;101913.28;;;10.57;80.92
10460;BME280;54412;51.206;6.888;2024-01-30T07:45:20;101917.78;;;10.53;81.10
10460;BME280;54412;51.206;6.888;2024-01-30T07:47:49;101915.31;;;10.47;81.42
10460;BME280;54412;51.206;6.888;2024-01-30T07:50:15;101922.38;;;10.46;81.41
10460;BME280;54412;51.206;6.888;2024-01-30T07:52:41;101924.75;;;10.56;81.15
10460;BME280;54412;51.206;6.888;2024-01-30T07:55:07;101924.19;;;10.44;81.40
10460;BME280;54412;51.206;6.888;2024-01-30T07:57:34;101938.44;;;10.68;80.55
10460;BME280;54412;51.206;6.888;2024-01-30T08:00:01;101940.47;;;10.59;81.47
10460;BME280;54412;51.206;6.888;2024-01-30T08:02:26;101937.72;;;10.63;80.65
10460;BME280;54412;51.206;6.888;2024-01-30T08:04:52;101943.72;;;10.68;80.94
10460;BME280;54412;51.206;6.888;2024-01-30T08:07:18;101942.84;;;10.68;80.59
10460;BME280;54412;51.206;6.888;2024-01-30T08:09:44;101939.03;;;10.48;81.57
10460;BME280;54412;51.206;6.888;2024-01-30T08:12:09;101946.06;;;10.48;82.09
10460;BME280;54412;51.206;6.888;2024-01-30T08:14:35;101940.31;;;10.65;80.90
10460;BME280;54412;51.206;6.888;2024-01-30T08:17:01;101938.25;;;10.43;81.99
10460;BME280;54412;51.206;6.888;2024-01-30T08:19:26;101936.28;;;10.51;81.84
10460;BME280;54412;51.206;6.888;2024-01-30T08:21:52;101939.53;;;10.61;81.58
10460;BME280;54412;51.206;6.888;2024-01-30T08:24:18;101941.47;;;10.54;81.87
10460;BME280;54412;51.206;6.888;2024-01-30T08:26:43;101936.44;;;10.45;81.94
10460;BME280;54412;51.206;6.888;2024-01-30T08:29:09;101931.19;;;10.45;82.62
10460;BME280;54412;51.206;6.888;2024-01-30T08:31:34;101943.25;;;10.54;81.77
10460;BME280;54412;51.206;6.888;2024-01-30T08:34:00;101936.13;;;10.56;81.86
10460;BME280;54412;51.206;6.888;2024-01-30T08:36:26;101936.91;;;10.61;82.03
10460;BME280;54412;51.206;6.888;2024-01-30T08:38:51;101940.16;;;10.69;81.30
10460;BME280;54412;51.206;6.888;2024-01-30T08:41:17;101933.72;;;10.78;80.93
10460;BME280;54412;51.206;6.888;2024-01-30T08:43:43;101944.72;;;10.93;80.19
10460;BME280;54412;51.206;6.888;2024-01-30T08:46:10;101951.09;;;10.85;80.82
10460;BME280;54412;51.206;6.888;2024-01-30T08:48:36;101948.72;;;11.05;79.75
10460;BME280;54412;51.206;6.888;2024-01-30T08:51:02;101947.41;;;10.92;80.28
10460;BME280;54412;51.206;6.888;2024-01-30T08:53:27;101952.34;;;11.02;79.51
10460;BME280;54412;51.206;6.888;2024-01-30T08:55:53;101966.03;;;11.15;79.30
10460;BME280;54412;51.206;6.888;2024-01-30T08:58:19;101956.81;;;11.00;79.92
10460;BME280;54412;51.206;6.888;2024-01-30T09:00:45;101961.28;;;11.26;78.63
10460;BME280;54412;51.206;6.888;2024-01-30T09:03:10;101966.63;;;11.23;78.96
10460;BME280;54412;51.206;6.888;2024-01-30T09:05:36;101975.50;;;11.22;78.66
10460;BME280;54412;51.206;6.888;2024-01-30T09:08:02;101982.50;;;11.23;78.45
10460;BME280;54412;51.206;6.888;2024-01-30T09:10:27;101983.88;;;11.34;78.34
10460;BME280;54412;51.206;6.888;2024-01-30T09:12:53;101989.19;;;11.34;78.34
10460;BME280;54412;51.206;6.888;2024-01-30T09:15:19;101982.53;;;11.21;78.69
10460;BME280;54412;51.206;6.888;2024-01-30T09:17:44;101987.13;;;11.44;77.79
10460;BME280;54412;51.206;6.888;2024-01-30T09:20:11;101983.38;;;11.49;77.42
10460;BME280;54412;51.206;6.888;2024-01-30T09:22:37;101985.31;;;11.72;78.57
10460;BME280;54412;51.206;6.888;2024-01-30T09:25:02;101986.09;;;11.76;77.66
10460;BME280;54412;51.206;6.888;2024-01-30T09:27:28;101990.34;;;11.80;77.55
10460;BME280;54412;51.206;6.888;2024-01-30T09:29:54;101990.88;;;11.63;78.23
10460;BME280;54412;51.206;6.888;2024-01-30T09:32:20;101994.25;;;11.68;76.72
10460;BME280;54412;51.206;6.888;2024-01-30T09:34:45;102002.19;;;11.68;76.81
10460;BME280;54412;51.206;6.888;2024-01-30T09:37:11;101998.28;;;11.80;76.69
10460;BME280;54412;51.206;6.888;2024-01-30T09:39:37;101991.44;;;11.74;76.26
10460;BME280;54412;51.206;6.888;2024-01-30T09:42:35;101997.66;;;11.72;76.74
10460;BME280;54412;51.206;6.888;2024-01-30T09:45:05;102005.81;;;11.66;76.86
10460;BME280;54412;51.206;6.888;2024-01-30T09:47:42;101997.59;;;11.75;77.03
10460;BME280;54412;51.206;6.888;2024-01-30T09:50:10;101992.50;;;11.69;77.23
10460;BME280;54412;51.206;6.888;2024-01-30T09:52:37;102002.59;;;11.82;76.57
10460;BME280;54412;51.206;6.888;2024-01-30T09:55:04;101995.41;;;11.87;76.11
10460;BME280;54412;51.206;6.888;2024-01-30T09:57:29;102002.97;;;11.98;75.51
10460;BME280;54412;51.206;6.888;2024-01-30T09:59:55;102001.56;;;11.86;76.09
10460;BME280;54412;51.206;6.888;2024-01-30T10:02:21;101997.75;;;11.95;75.97
10460;BME280;54412;51.206;6.888;2024-01-30T10:04:52;102001.38;;;11.92;75.89
10460;BME280;54412;51.206;6.888;2024-01-30T10:07:18;102003.28;;;11.89;76.08
10460;BME280;54412;51.206;6.888;2024-01-30T10:09:45;101999.75;;;11.88;76.34
10460;BME280;54412;51.206;6.888;2024-01-30T10:12:12;102007.38;;;11.97;76.05
10460;BME280;54412;51.206;6.888;2024-01-30T10:14:42;102003.03;;;11.95;76.04
10460;BME280;54412;51.206;6.888;2024-01-30T10:17:12;102000.34;;;11.96;76.15
10460;BME280;54412;51.206;6.888;2024-01-30T10:19:39;102008.88;;;12.04;75.78
10460;BME280;54412;51.206;6.888;2024-01-30T10:22:06;102002.09;;;12.22;75.44
10460;BME280;54412;51.206;6.888;2024-01-30T10:24:33;102002.66;;;12.31;75.16
10460;BME280;54412;51.206;6.888;2024-01-30T10:26:59;102012.34;;;12.31;75.30
10460;BME280;54412;51.206;6.888;2024-01-30T10:29:25;102003.34;;;12.36;74.82
10460;BME280;54412;51.206;6.888;2024-01-30T10:32:04;102007.63;;;12.16;75.22
10460;BME280;54412;51.206;6.888;2024-01-30T10:34:31;102003.84;;;12.23;75.84
10460;BME280;54412;51.206;6.888;2024-01-30T10:37:09;102001.44;;;12.40;75.14
10460;BME280;54412;51.206;6.888;2024-01-30T10:39:39;101999.66;;;12.40;75.06
10460;BME280;54412;51.206;6.888;2024-01-30T10:42:07;101996.91;;;12.43;74.78
10460;BME280;54412;51.206;6.888;2024-01-30T10:44:51;101989.22;;;12.60;74.63
10460;BME280;54412;51.206;6.888;2024-01-30T10:47:28;101983.72;;;12.42;75.15
10460;BME280;54412;51.206;6.888;2024-01-30T10:49:55;101992.53;;;12.42;75.22
10460;BME280;54412;51.206;6.888;2024-01-30T10:52:23;102003.78;;;12.24;75.72
10460;BME280;54412;51.206;6.888;2024-01-30T10:54:51;101997.31;;;12.56;74.12
10460;BME280;54412;51.206;6.888;2024-01-30T10:57:18;101997.22;;;12.59;74.61
10460;BME280;54412;51.206;6.888;2024-01-30T10:59:46;101996.94;;;12.67;74.18
10460;BME280;54412;51.206;6.888;2024-01-30T11:02:13;101996.84;;;12.70;74.34
10460;BME280;54412;51.206;6.888;2024-01-30T11:04:42;101997.41;;;12.78;73.68
10460;BME280;54412;51.206;6.888;2024-01-30T11:07:25;101990.72;;;12.68;73.79
10460;BME280;54412;51.206;6.888;2024-01-30T11:12:28;101996.09;;;12.66;73.90
10460;BME280;54412;51.206;6.888;2024-01-30T11:15:13;101999.06;;;12.80;73.96
10460;BME280;54412;51.206;6.888;2024-01-30T11:20:22;102010.88;;;12.72;74.04
10460;BME280;54412;51.206;6.888;2024-01-30T11:22:56;102005.19;;;12.57;74.15
10460;BME280;54412;51.206;6.888;2024-01-30T11:25:23;102007.31;;;12.73;73.84
10460;BME280;54412;51.206;6.888;2024-01-30T11:27:54;102009.66;;;12.80;73.63
10460;BME280;54412;51.206;6.888;2024-01-30T11:30:31;102012.72;;;12.93;73.32
10460;BME280;54412;51.206;6.888;2024-01-30T11:33:07;102009.81;;;12.76;73.92
10460;BME280;54412;51.206;6.888;2024-01-30T11:35:40;102003.44;;;12.58;74.81
10460;BME280;54412;51.206;6.888;2024-01-30T11:38:09;101991.41;;;12.49;75.15
10460;BME280;54412;51.206;6.888;2024-01-30T11:40:37;102001.78;;;12.79;74.02
10460;BME280;54412;51.206;6.888;2024-01-30T11:43:05;101991.69;;;12.65;74.56
10460;BME280;54412;51.206;6.888;2024-01-30T11:45:32;101991.25;;;12.77;74.41
10460;BME280;54412;51.206;6.888;2024-01-30T11:47:59;101991.06;;;12.58;75.04
10460;BME280;54412;51.206;6.888;2024-01-30T11:50:30;101995.63;;;12.78;74.47
10460;BME280;54412;51.206;6.888;2024-01-30T11:52:57;102002.28;;;12.88;74.14
10460;BME280;54412;51.206;6.888;2024-01-30T11:55:24;102000.97;;;12.77;74.95
10460;BME280;54412;51.206;6.888;2024-01-30T11:57:50;102002.06;;;12.71;75.10
10460;BME280;54412;51.206;6.888;2024-01-30T12:00:17;102006.97;;;12.82;74.94
10460;BME280;54412;51.206;6.888;2024-01-30T12:02:48;101999.22;;;12.76;75.09
10460;BME280;54412;51.206;6.888;2024-01-30T12:05:15;102007.25;;;12.74;75.36
10460;BME280;54412;51.206;6.888;2024-01-30T12:07:44;101999.69;;;12.63;76.09
10460;BME280;54412;51.206;6.888;2024-01-30T12:10:09;102004.66;;;12.73;75.63
10460;BME280;54412;51.206;6.888;2024-01-30T12:12:37;102006.03;;;12.83;75.18
10460;BME280;54412;51.206;6.888;2024-01-30T12:15:03;101999.81;;;12.84;75.06
10460;BME280;54412;51.206;6.888;2024-01-30T12:17:30;102002.94;;;12.72;76.95
10460;BME280;54412;51.206;6.888;2024-01-30T12:20:18;102001.66;;;12.82;77.18
10460;BME280;54412;51.206;6.888;2024-01-30T12:22:46;102003.22;;;12.64;78.28
10460;BME280;54412;51.206;6.888;2024-01-30T12:25:20;101996.72;;;12.73;78.69
10460;BME280;54412;51.206;6.888;2024-01-30T12:27:49;101988.09;;;12.68;79.85
10460;BME280;54412;51.206;6.888;2024-01-30T12:30:17;101989.03;;;12.65;81.15
10460;BME280;54412;51.206;6.888;2024-01-30T12:32:50;101984.63;;;12.66;81.37
10460;BME280;54412;51.206;6.888;2024-01-30T12:35:18;101987.97;;;12.71;81.18
10460;BME280;54412;51.206;6.888;2024-01-30T12:37:46;101986.75;;;12.79;81.13
10460;BME280;54412;51.206;6.888;2024-01-30T12:40:14;101989.56;;;12.75;81.70
10460;BME280;54412;51.206;6.888;2024-01-30T12:42:41;101987.00;;;12.73;81.72
10460;BME280;54412;51.206;6.888;2024-01-30T12:45:08;101986.94;;;12.75;81.64
10460;BME280;54412;51.206;6.888;2024-01-30T12:51:16;101991.28;;;12.76;82.28
10460;BME280;54412;51.206;6.888;2024-01-30T12:53:41;101996.69;;;12.96;82.35
10460;BME280;54412;51.206;6.888;2024-01-30T12:56:07;101988.56;;;12.79;82.94
10460;BME280;54412;51.206;6.888;2024-01-30T12:58:33;101997.06;;;12.87;83.01